Zapata, TX

10:10 PM CDT am 21. Oktober 2014 (GMT -0500)
Zapata | Change Station
CLOSE
Current Station
Flughafen
Location: Zapata,
Höhe: 423 ft
Wetterstationen in der Umgebung

Höhe 423 ft 26.97 °N, 99.25 °W | Updated 4 hours ago

Wolkig
Wolkig
81 °F
gefühlte 83 °F
N
9
Wind Wechselnd Wind aus Südost
Gusts 16 mph

Heute
Max. -- | schwach -- °F
--% Regenrisiko
Gestern
Max. -- | schwach -- °F
Precip. -- inch
7:40 AM 7:02 PM
Letztes Viertel, 3% visible
Druck 29.91 inch
Sichtweite 10.0 Meilen
Wolken Teils Wolkig 8000 ft
Hitzeindex 83 °F
Taupunkt 67 °F
Feuchtigkeit 63%
Regen 0.27 inch
Schneehöhe Nicht verfügbar..
UV 1 von 12
Pollen 6.40 von 12
Luftqualität Nicht verfügbar..
Flu Activity Sporadic
METAR KAPY 212250Z AUTO 13008G14KT 10SM SCT080 27/19 A2991 RMK AO2 T02700193

More Conditions Fewer Conditions

Druck 29.91 inch
Sichtweite 10.0 Meilen
Wolken Teils Wolkig 8000 ft
Hitzeindex 83 °F
Taupunkt 67 °F
Feuchtigkeit 63%
Regen 0.27 inch
Schneehöhe Nicht verfügbar..
UV 1 von 12
Pollen 6.40 von 12
Luftqualität Nicht verfügbar..
Flu Activity Sporadic
METAR KAPY 212250Z AUTO 13008G14KT 10SM SCT080 27/19 A2991 RMK AO2 T02700193

More Conditions Fewer Conditions

Nowcast | as of 8:28 PM CDT on October 21, 2014

Light showers to affect portions of the Upper Valley and western ranch lands through 10 PM. The showers are moving east to northeast at around 20 mph from Mexico. Rainfall amounts will be less than one quarter of an inch.

×

10-Day Weather Forecast

Almanac

Astronomie

Oct. 21, 2014 Aufgang Untergang
Genaue Zeit 07:40 CDT 19:02 CDT
Bürgerliche Dämmerung 07:16 CDT 19:26 CDT
Nautische Dämmerung 06:49 CDT 19:53 CDT
Astronomische Dämmerung 06:22 CDT 20:20 CDT
Mond 05:37 CDT (10/21) 17:48 CDT (10/21)
Länge des sichtbaren Lichts 12h 09m
Tageslänge
11h 22m
Tomorrow will be 1m 30s shorter.
Letztes Viertel, 3% of the Moon is Illuminated
Heute
Letztes Viertel
Okt 23
Neu
Okt 30
Erstes Viertel
Nov 6
Vollmond
Nov 14
Letztes Viertel

Heutige Rekorde

State Highs State Lows

Community

WunderPhotos

Upload Photos

1,763,869 Fotos hochgeladen!

Nearby

Schneehöhe

Station Depth Höhe
Kein Neuschnee gemeldet.

Erdbebenaktivität

Stadt Distance Mag. Time & Date
No recent earthquake activity has been reported nearby.
Minimum magnitude displayed is 2.5.

küstennahe Wassertemperaturen

Ort Temperatur
Kein Stationsbericht

Wetterstationen in der Umgebung